createdAt,value
2023-02-07T00:01:34.053Z,89.34
2023-02-07T00:04:02.226Z,89.29
2023-02-07T00:06:33.509Z,89.22
2023-02-07T00:09:04.729Z,89.15
2023-02-07T00:11:32.981Z,89.09
2023-02-07T00:14:01.204Z,89.02
2023-02-07T00:16:29.360Z,88.96
2023-02-07T00:19:00.031Z,88.92
2023-02-07T00:21:29.202Z,88.87
2023-02-07T00:23:58.265Z,88.84
2023-02-07T00:26:27.865Z,88.81
2023-02-07T00:28:56.761Z,88.78
2023-02-07T00:31:31.233Z,88.75
2023-02-07T00:34:02.276Z,88.72
2023-02-07T00:36:33.616Z,88.68
2023-02-07T00:39:05.485Z,88.68
2023-02-07T00:41:34.939Z,88.67
2023-02-07T00:44:03.574Z,88.68
2023-02-07T00:46:32.944Z,88.69
2023-02-07T00:49:01.313Z,88.70
2023-02-07T00:51:31.516Z,88.71
2023-02-07T00:54:00.645Z,88.71
2023-02-07T00:56:30.067Z,88.72
2023-02-07T00:58:59.935Z,88.74
2023-02-07T01:01:28.300Z,88.74
2023-02-07T01:03:57.637Z,88.77
2023-02-07T01:06:25.966Z,88.78
2023-02-07T01:09:01.665Z,88.80
2023-02-07T01:11:30.399Z,88.81
2023-02-07T01:14:01.167Z,88.80
2023-02-07T01:16:32.294Z,88.81
2023-02-07T01:19:04.737Z,88.86
2023-02-07T01:21:32.720Z,88.94
2023-02-07T01:24:00.856Z,89.02
2023-02-07T01:26:28.941Z,89.10
2023-02-07T01:28:57.172Z,89.15
2023-02-07T01:31:26.066Z,89.21
2023-02-07T01:33:59.054Z,89.25
2023-02-07T01:36:28.900Z,89.26
2023-02-07T01:38:57.993Z,89.26
2023-02-07T01:41:27.999Z,89.29
2023-02-07T01:44:10.161Z,89.28
2023-02-07T01:46:52.364Z,89.27
2023-02-07T01:49:25.847Z,89.25
2023-02-07T01:51:58.458Z,89.25
2023-02-07T01:54:32.455Z,89.26
2023-02-07T01:57:07.105Z,89.25
2023-02-07T01:59:41.130Z,89.22
2023-02-07T02:02:09.422Z,89.20
2023-02-07T02:04:38.790Z,89.17
2023-02-07T02:07:10.165Z,89.15
2023-02-07T02:09:39.406Z,89.13
2023-02-07T02:12:29.168Z,89.12
2023-02-07T02:15:09.682Z,89.10
2023-02-07T02:17:57.131Z,89.10
2023-02-07T02:20:28.075Z,89.10
2023-02-07T02:23:17.643Z,89.11
2023-02-07T02:25:57.779Z,89.10
2023-02-07T02:28:50.976Z,89.09
2023-02-07T02:31:58.090Z,89.10
2023-02-07T02:35:05.142Z,89.10
2023-02-07T02:37:42.751Z,89.12
2023-02-07T02:40:23.328Z,89.12
2023-02-07T02:42:59.816Z,89.12
2023-02-07T02:45:34.406Z,89.12
2023-02-07T02:48:03.972Z,89.12
2023-02-07T02:50:35.027Z,89.11
2023-02-07T02:53:03.170Z,89.11
2023-02-07T02:55:53.999Z,89.13
2023-02-07T02:58:35.043Z,89.13
2023-02-07T03:01:17.458Z,89.13
2023-02-07T03:03:49.283Z,89.15
2023-02-07T03:06:20.675Z,89.18
2023-02-07T03:09:02.660Z,89.20
2023-02-07T03:11:39.327Z,89.23
2023-02-07T03:14:25.426Z,89.24
2023-02-07T03:17:45.933Z,89.26
2023-02-07T03:20:26.385Z,89.27
2023-02-07T03:22:57.007Z,89.28
2023-02-07T03:25:27.621Z,89.29
2023-02-07T03:27:56.523Z,89.30
2023-02-07T03:30:28.936Z,89.32
2023-02-07T03:33:00.154Z,89.37
2023-02-07T03:35:54.680Z,89.39
2023-02-07T03:38:23.028Z,89.38
2023-02-07T03:41:02.336Z,89.39
2023-02-07T03:43:33.809Z,89.41
2023-02-07T03:46:01.752Z,89.42
2023-02-07T03:48:29.786Z,89.44
2023-02-07T03:50:57.925Z,89.45
2023-02-07T03:53:27.337Z,89.45
2023-02-07T03:55:55.682Z,89.48
2023-02-07T03:58:23.650Z,89.49
2023-02-07T04:05:23.887Z,89.52
2023-02-07T04:07:52.126Z,89.55
2023-02-07T04:10:20.155Z,89.57
2023-02-07T04:12:48.088Z,89.60
2023-02-07T04:15:16.176Z,89.61
2023-02-07T04:17:44.176Z,89.63
2023-02-07T04:20:12.670Z,89.65
2023-02-07T04:22:40.714Z,89.67
2023-02-07T04:25:08.851Z,89.68
2023-02-07T04:27:37.261Z,89.70
2023-02-07T04:34:36.810Z,89.64
2023-02-07T04:37:04.940Z,89.63
2023-02-07T04:39:32.867Z,89.74
2023-02-07T04:42:00.978Z,89.82
2023-02-07T04:44:29.165Z,89.86
2023-02-07T04:46:57.183Z,89.88
2023-02-07T04:49:25.240Z,89.89
2023-02-07T04:51:53.718Z,89.89
2023-02-07T04:54:21.698Z,89.88
2023-02-07T04:56:49.653Z,89.89
2023-02-07T04:59:17.726Z,89.90
2023-02-07T05:01:45.768Z,89.90
2023-02-07T05:04:13.811Z,89.91
2023-02-07T05:06:41.865Z,89.92
2023-02-07T05:09:10.053Z,89.92
2023-02-07T05:11:38.213Z,89.92
2023-02-07T05:14:07.702Z,89.91
2023-02-07T05:16:36.042Z,89.93
2023-02-07T05:19:04.384Z,89.96
2023-02-07T05:21:33.069Z,89.98
2023-02-07T05:24:01.184Z,89.96
2023-02-07T05:26:29.177Z,89.95
2023-02-07T05:28:57.172Z,89.94
2023-02-07T05:31:45.436Z,89.93
2023-02-07T05:34:13.673Z,89.91
2023-02-07T05:36:41.845Z,89.89
2023-02-07T05:39:09.952Z,89.89
2023-02-07T05:41:37.971Z,89.88
2023-02-07T05:44:07.028Z,89.86
2023-02-07T05:46:37.219Z,89.84
2023-02-07T05:49:05.183Z,89.84
2023-02-07T05:51:33.199Z,89.78
2023-02-07T05:54:02.675Z,89.65
2023-02-07T05:56:30.777Z,89.56
2023-02-07T05:58:59.830Z,89.46
2023-02-07T06:01:28.889Z,89.43
2023-02-07T06:03:57.194Z,89.41
2023-02-07T06:06:25.426Z,89.40
2023-02-07T06:08:53.476Z,89.41
2023-02-07T06:11:22.559Z,89.40
2023-02-07T06:13:50.630Z,89.42
2023-02-07T06:16:18.698Z,89.44
2023-02-07T06:18:46.850Z,89.45
2023-02-07T06:21:16.061Z,89.47
2023-02-07T06:23:47.132Z,89.48
2023-02-07T06:26:15.878Z,89.49
2023-02-07T06:28:44.506Z,89.51
2023-02-07T06:31:12.816Z,89.51
2023-02-07T06:33:41.057Z,89.52
2023-02-07T06:36:09.613Z,89.53
2023-02-07T06:38:37.573Z,89.53
2023-02-07T06:41:05.704Z,89.52
2023-02-07T06:43:34.081Z,89.52
2023-02-07T06:46:02.295Z,89.51
2023-02-07T06:48:30.380Z,89.50
2023-02-07T06:50:58.441Z,89.50
2023-02-07T06:53:26.876Z,89.48
2023-02-07T06:55:55.661Z,89.46
2023-02-07T06:58:23.911Z,89.44
2023-02-07T07:00:52.140Z,89.39
2023-02-07T07:03:20.524Z,89.35
2023-02-07T07:05:48.694Z,89.29
2023-02-07T07:08:18.794Z,89.24
2023-02-07T07:10:47.359Z,89.18
2023-02-07T07:13:15.423Z,89.14
2023-02-07T07:15:43.576Z,89.09
2023-02-07T07:18:11.709Z,89.03
2023-02-07T07:20:39.875Z,88.99
2023-02-07T07:23:07.986Z,88.94
2023-02-07T07:25:36.506Z,88.88
2023-02-07T07:28:04.772Z,88.83
2023-02-07T07:30:33.422Z,88.74
2023-02-07T07:33:01.626Z,88.60
2023-02-07T07:35:29.996Z,88.52
2023-02-07T07:37:58.163Z,88.47
2023-02-07T07:40:26.377Z,88.40
2023-02-07T07:42:54.695Z,88.31
2023-02-07T07:45:30.169Z,88.23
2023-02-07T07:47:58.254Z,88.14
2023-02-07T07:50:26.429Z,88.00
2023-02-07T07:52:54.404Z,87.89
2023-02-07T07:55:22.589Z,87.82
2023-02-07T07:57:50.668Z,87.78
2023-02-07T08:00:19.012Z,87.69
2023-02-07T08:02:47.199Z,87.63
2023-02-07T08:05:15.927Z,87.58
2023-02-07T08:07:44.082Z,87.49
2023-02-07T08:10:12.096Z,87.33
2023-02-07T08:12:41.135Z,87.23
2023-02-07T08:15:10.161Z,87.18
2023-02-07T08:17:38.272Z,87.11
2023-02-07T08:20:06.794Z,86.90
2023-02-07T08:22:34.788Z,86.75
2023-02-07T08:25:03.127Z,86.38
2023-02-07T08:27:31.330Z,86.36
2023-02-07T08:29:59.537Z,86.40
2023-02-07T08:32:29.669Z,86.41
2023-02-07T08:34:57.921Z,86.33
2023-02-07T08:37:26.134Z,86.17
2023-02-07T08:39:54.648Z,85.98
2023-02-07T08:42:22.979Z,85.82
2023-02-07T08:44:51.046Z,85.72
2023-02-07T08:47:19.982Z,85.74
2023-02-07T08:49:48.204Z,85.65
2023-02-07T08:52:16.549Z,85.60
2023-02-07T08:54:44.806Z,85.56
2023-02-07T08:57:12.974Z,85.45
2023-02-07T08:59:41.124Z,85.37
2023-02-07T09:02:11.830Z,85.32
2023-02-07T09:04:49.631Z,85.21
2023-02-07T09:07:18.266Z,85.11
2023-02-07T09:09:46.644Z,85.02
2023-02-07T09:12:14.947Z,84.86
2023-02-07T09:14:43.116Z,84.78
2023-02-07T09:17:11.247Z,84.84
2023-02-07T09:19:39.344Z,84.71
2023-02-07T09:22:07.743Z,84.47
2023-02-07T09:24:35.833Z,84.54
2023-02-07T09:27:05.533Z,84.55
2023-02-07T09:29:33.867Z,84.51
2023-02-07T09:32:02.307Z,84.41
2023-02-07T09:34:33.398Z,84.27
2023-02-07T09:37:02.644Z,84.35
2023-02-07T09:39:33.109Z,84.42
2023-02-07T09:42:28.430Z,84.34
2023-02-07T09:45:06.106Z,84.14
2023-02-07T09:47:38.090Z,83.86
2023-02-07T09:50:08.603Z,83.67
2023-02-07T09:52:49.489Z,83.75
2023-02-07T09:55:32.708Z,83.86
2023-02-07T09:58:11.926Z,83.85
2023-02-07T10:00:42.472Z,83.75
2023-02-07T10:03:18.879Z,83.70
2023-02-07T10:06:03.693Z,83.66
2023-02-07T10:08:41.278Z,83.26
2023-02-07T10:11:47.419Z,83.17
2023-02-07T10:14:27.344Z,83.16
2023-02-07T10:17:04.611Z,83.17
2023-02-07T10:19:50.526Z,83.14
2023-02-07T10:22:34.232Z,83.11
2023-02-07T10:25:20.141Z,82.87
2023-02-07T10:28:12.352Z,82.93
2023-02-07T10:30:41.829Z,82.90
2023-02-07T10:33:24.381Z,82.79
2023-02-07T10:35:52.666Z,82.78
2023-02-07T10:38:31.034Z,82.93
2023-02-07T10:41:28.720Z,82.86
2023-02-07T10:43:56.985Z,82.79
2023-02-07T10:46:25.521Z,82.77
2023-02-07T10:48:53.908Z,82.75
2023-02-07T10:51:32.479Z,82.72
2023-02-07T10:54:07.671Z,82.62
2023-02-07T10:56:48.048Z,82.53
2023-02-07T10:59:40.733Z,82.54
2023-02-07T11:04:42.536Z,82.32
2023-02-07T11:07:15.681Z,82.39
2023-02-07T11:09:43.605Z,82.36
2023-02-07T11:12:29.554Z,82.22
2023-02-07T11:15:03.568Z,82.19
2023-02-07T11:17:34.656Z,81.97
2023-02-07T11:20:05.574Z,81.97
2023-02-07T11:22:34.447Z,81.99
2023-02-07T11:25:07.202Z,82.10
2023-02-07T11:27:41.538Z,82.14
2023-02-07T11:30:20.600Z,81.83
2023-02-07T11:33:23.792Z,81.63
2023-02-07T11:36:23.536Z,81.82
2023-02-07T11:38:59.830Z,81.57
2023-02-07T11:41:31.012Z,81.29
2023-02-07T11:44:16.254Z,81.34
2023-02-07T11:46:48.864Z,81.14
2023-02-07T11:49:30.269Z,81.09
2023-02-07T11:52:01.941Z,81.02
2023-02-07T11:54:34.197Z,81.06
2023-02-07T11:57:06.262Z,81.06
2023-02-07T11:59:34.892Z,80.98
2023-02-07T12:02:25.101Z,80.96
2023-02-07T12:04:56.733Z,80.69
2023-02-07T12:07:41.228Z,80.83
2023-02-07T12:10:22.851Z,80.88
2023-02-07T12:13:20.088Z,80.88
2023-02-07T12:15:56.468Z,80.85
2023-02-07T12:18:33.665Z,80.48
2023-02-07T12:21:17.635Z,80.55
2023-02-07T12:23:52.473Z,80.63
2023-02-07T12:26:32.855Z,80.58
2023-02-07T12:29:22.939Z,80.53
2023-02-07T12:31:57.336Z,80.55
2023-02-07T12:34:41.756Z,80.54
2023-02-07T12:37:21.706Z,80.58
2023-02-07T12:39:59.652Z,80.56
2023-02-07T12:42:38.159Z,80.66
2023-02-07T12:45:10.505Z,80.53
2023-02-07T12:48:10.519Z,80.61
2023-02-07T12:50:39.291Z,80.99
2023-02-07T12:53:49.036Z,80.90
2023-02-07T12:56:29.028Z,80.92
2023-02-07T12:59:18.407Z,81.02
2023-02-07T13:02:14.677Z,81.08
2023-02-07T13:04:52.384Z,81.08
2023-02-07T13:07:45.267Z,81.11
2023-02-07T13:10:36.468Z,81.17
2023-02-07T13:13:14.263Z,81.27
2023-02-07T13:15:58.167Z,81.38
2023-02-07T13:18:46.181Z,81.52
2023-02-07T13:21:20.298Z,81.36
2023-02-07T13:23:49.496Z,81.41
2023-02-07T13:26:21.149Z,81.35
2023-02-07T13:28:51.703Z,81.45
2023-02-07T13:31:32.314Z,81.52
2023-02-07T13:34:01.717Z,81.42
2023-02-07T13:36:43.046Z,81.38
2023-02-07T13:39:48.482Z,81.33
2023-02-07T13:42:50.403Z,81.33
2023-02-07T13:45:28.485Z,81.25
2023-02-07T13:48:23.113Z,81.30
2023-02-07T13:51:05.314Z,81.41
2023-02-07T13:53:51.718Z,81.33
2023-02-07T13:56:49.945Z,81.49
2023-02-07T13:59:38.805Z,81.57
2023-02-07T14:02:14.675Z,81.64
2023-02-07T14:04:49.983Z,81.75
2023-02-07T14:07:31.416Z,81.82
2023-02-07T14:09:59.922Z,81.88
2023-02-07T14:12:27.764Z,81.95
2023-02-07T14:15:03.898Z,81.97
2023-02-07T14:17:31.760Z,82.05
2023-02-07T14:20:01.168Z,82.14
2023-02-07T14:22:55.368Z,82.25
2023-02-07T14:25:41.476Z,82.35
2023-02-07T14:28:18.978Z,82.35
2023-02-07T14:30:53.356Z,82.39
2023-02-07T14:34:06.279Z,82.47
2023-02-07T14:36:35.987Z,82.55
2023-02-07T14:39:23.191Z,82.59
2023-02-07T14:41:52.454Z,82.68
2023-02-07T14:44:43.154Z,82.81
2023-02-07T14:47:21.996Z,82.83
2023-02-07T14:49:54.239Z,82.92
2023-02-07T14:52:35.441Z,83.01
2023-02-07T14:55:26.102Z,83.09
2023-02-07T14:58:06.854Z,83.13
2023-02-07T15:00:54.392Z,83.18
2023-02-07T15:03:22.319Z,83.28
2023-02-07T15:05:52.968Z,83.36
2023-02-07T15:08:23.961Z,83.40
2023-02-07T15:11:02.508Z,83.56
2023-02-07T15:13:41.584Z,83.68
2023-02-07T15:16:22.096Z,83.77
2023-02-07T15:19:24.301Z,83.91
2023-02-07T15:21:53.998Z,83.98
2023-02-07T15:24:29.837Z,84.09
2023-02-07T15:27:02.469Z,84.16
2023-02-07T15:29:33.511Z,84.16
2023-02-07T15:32:01.765Z,84.20
2023-02-07T15:34:35.183Z,84.25
2023-02-07T15:37:20.930Z,84.35
2023-02-07T15:39:50.977Z,84.44
2023-02-07T15:42:20.654Z,84.58
2023-02-07T15:44:50.419Z,84.66
2023-02-07T15:47:32.970Z,84.77
2023-02-07T15:50:08.911Z,84.83
2023-02-07T15:52:44.094Z,84.92
2023-02-07T15:55:26.826Z,84.99
2023-02-07T15:57:55.920Z,85.05
2023-02-07T16:00:39.017Z,85.04
2023-02-07T16:03:21.803Z,85.06
2023-02-07T16:06:10.167Z,85.12
2023-02-07T16:08:42.200Z,85.18
2023-02-07T16:11:22.274Z,85.22
2023-02-07T16:13:59.308Z,85.20
2023-02-07T16:16:37.013Z,85.21
2023-02-07T16:19:15.623Z,85.26
2023-02-07T16:21:44.814Z,85.31
2023-02-07T16:24:23.150Z,85.30
2023-02-07T16:26:51.437Z,85.32
2023-02-07T16:29:23.043Z,85.41
2023-02-07T16:31:52.173Z,85.51
2023-02-07T16:34:21.396Z,85.52
2023-02-07T16:36:52.332Z,85.54
2023-02-07T16:39:21.434Z,85.60
2023-02-07T16:41:54.696Z,85.61
2023-02-07T16:44:25.025Z,85.68
2023-02-07T16:46:53.298Z,85.75
2023-02-07T16:49:23.713Z,85.70
2023-02-07T16:51:52.652Z,85.70
2023-02-07T16:54:20.822Z,85.73
2023-02-07T16:56:53.827Z,85.75
2023-02-07T16:59:22.681Z,85.73
2023-02-07T17:01:52.624Z,85.74
2023-02-07T17:04:21.600Z,85.76
2023-02-07T17:06:50.269Z,85.80
2023-02-07T17:09:24.213Z,85.84
2023-02-07T17:11:53.184Z,85.89
2023-02-07T17:14:22.124Z,85.95
2023-02-07T17:16:50.124Z,85.98
2023-02-07T17:19:23.957Z,85.96
2023-02-07T17:21:52.897Z,86.01
2023-02-07T17:24:20.988Z,86.02
2023-02-07T17:26:54.503Z,86.08
2023-02-07T17:29:22.767Z,86.11
2023-02-07T17:31:51.509Z,86.18
2023-02-07T17:34:19.772Z,86.23
2023-02-07T17:36:49.802Z,86.22
2023-02-07T17:39:19.178Z,86.28
2023-02-07T17:41:47.333Z,86.26
2023-02-07T17:44:17.008Z,86.31
2023-02-07T17:46:45.028Z,86.30
2023-02-07T17:49:14.852Z,86.32
2023-02-07T17:51:42.997Z,86.32
2023-02-07T17:54:11.397Z,86.38
2023-02-07T17:56:39.374Z,86.39
2023-02-07T17:59:10.130Z,86.44
2023-02-07T18:01:38.148Z,86.47
2023-02-07T18:04:06.494Z,86.49
2023-02-07T18:06:34.610Z,86.51
2023-02-07T18:09:03.055Z,86.53
2023-02-07T18:11:31.553Z,86.57
2023-02-07T18:14:01.964Z,86.58
2023-02-07T18:16:29.969Z,86.61
2023-02-07T18:18:58.282Z,86.65
2023-02-07T18:21:28.174Z,86.71
2023-02-07T18:23:56.993Z,86.73
2023-02-07T18:26:25.092Z,86.78
2023-02-07T18:28:53.166Z,86.80
2023-02-07T18:31:24.102Z,86.78
2023-02-07T18:33:53.373Z,86.81
2023-02-07T18:36:23.442Z,86.82
2023-02-07T18:38:51.766Z,86.85
2023-02-07T18:41:23.668Z,86.85
2023-02-07T18:43:51.955Z,86.88
2023-02-07T18:46:21.364Z,86.85
2023-02-07T18:48:54.343Z,86.87
2023-02-07T18:51:23.070Z,86.88
2023-02-07T18:53:51.624Z,86.89
2023-02-07T18:56:22.407Z,86.93
2023-02-07T18:58:56.908Z,86.93
2023-02-07T19:04:36.830Z,86.86
2023-02-07T19:07:06.539Z,86.89
2023-02-07T19:09:34.950Z,86.95
2023-02-07T19:12:03.010Z,87.03
2023-02-07T19:14:31.974Z,87.04
2023-02-07T19:17:00.174Z,87.06
2023-02-07T19:19:30.686Z,87.06
2023-02-07T19:21:58.736Z,87.05
2023-02-07T19:24:28.149Z,87.04
2023-02-07T19:26:59.355Z,87.02
2023-02-07T19:29:30.306Z,87.02
2023-02-07T19:32:05.507Z,87.04
2023-02-07T19:34:34.917Z,87.04
2023-02-07T19:37:02.848Z,87.03
2023-02-07T19:39:30.918Z,87.04
2023-02-07T19:41:58.921Z,87.04
2023-02-07T19:44:26.982Z,87.05
2023-02-07T19:46:54.926Z,87.05
2023-02-07T19:49:22.953Z,87.06
2023-02-07T19:51:51.990Z,87.05
2023-02-07T19:54:20.052Z,87.07
2023-02-07T19:56:49.761Z,87.06
2023-02-07T19:59:18.935Z,87.03
2023-02-07T20:01:46.884Z,87.04
2023-02-07T20:04:15.105Z,87.05
2023-02-07T20:06:43.069Z,87.04
2023-02-07T20:09:11.079Z,86.99
2023-02-07T20:11:39.266Z,86.97
2023-02-07T20:14:07.907Z,86.95
2023-02-07T20:16:38.955Z,86.92
2023-02-07T20:19:07.955Z,86.91
2023-02-07T20:21:37.353Z,86.89
2023-02-07T20:24:06.646Z,86.87
2023-02-07T20:26:40.336Z,86.84
2023-02-07T20:29:11.947Z,86.84
2023-02-07T20:31:41.648Z,86.84
2023-02-07T20:34:10.379Z,86.83
2023-02-07T20:36:43.505Z,86.81
2023-02-07T20:39:14.454Z,86.79
2023-02-07T20:41:43.333Z,86.77
2023-02-07T20:44:15.507Z,86.74
2023-02-07T20:46:47.141Z,86.74
2023-02-07T20:49:16.793Z,86.72
2023-02-07T20:51:48.656Z,86.72
2023-02-07T20:54:18.085Z,86.70
2023-02-07T20:56:46.255Z,86.70
2023-02-07T20:59:26.203Z,86.70
2023-02-07T21:01:55.101Z,86.69
2023-02-07T21:04:23.260Z,86.69
2023-02-07T21:06:51.232Z,86.68
2023-02-07T21:09:19.668Z,86.67
2023-02-07T21:11:50.893Z,86.65
2023-02-07T21:14:27.833Z,86.62
2023-02-07T21:16:58.564Z,86.58
2023-02-07T21:19:27.170Z,86.55
2023-02-07T21:21:55.709Z,86.51
2023-02-07T21:24:23.834Z,86.47
2023-02-07T21:26:53.882Z,86.43
2023-02-07T21:29:22.833Z,86.38
2023-02-07T21:31:51.953Z,86.35
2023-02-07T21:34:25.358Z,86.31
2023-02-07T21:36:53.772Z,86.27
2023-02-07T21:39:24.275Z,86.25
2023-02-07T21:41:52.342Z,86.24
2023-02-07T21:44:22.108Z,86.24
2023-02-07T21:46:51.070Z,86.22
2023-02-07T21:49:20.979Z,86.20
2023-02-07T21:51:53.722Z,86.20
2023-02-07T21:54:22.042Z,86.17
2023-02-07T21:56:51.406Z,86.16
2023-02-07T21:59:20.960Z,86.17
2023-02-07T22:01:49.420Z,86.18
2023-02-07T22:04:17.867Z,86.17
2023-02-07T22:06:48.264Z,86.15
2023-02-07T22:09:18.223Z,86.12
2023-02-07T22:11:46.115Z,86.10
2023-02-07T22:14:14.465Z,86.09
2023-02-07T22:16:42.881Z,86.05
2023-02-07T22:19:13.547Z,86.03
2023-02-07T22:21:42.015Z,86.00
2023-02-07T22:24:12.280Z,85.97
2023-02-07T22:26:40.707Z,85.94
2023-02-07T22:29:09.513Z,85.91
2023-02-07T22:31:39.879Z,85.89
2023-02-07T22:34:12.683Z,85.86
2023-02-07T22:36:43.280Z,85.85
2023-02-07T22:39:13.362Z,85.88
2023-02-07T22:41:42.594Z,85.89
2023-02-07T22:44:11.252Z,85.88
2023-02-07T22:46:39.849Z,85.87
2023-02-07T22:49:09.481Z,85.85
2023-02-07T22:51:38.670Z,85.86
2023-02-07T22:54:10.158Z,85.87
2023-02-07T22:56:38.994Z,85.89
2023-02-07T22:59:07.260Z,85.90
2023-02-07T23:01:39.177Z,85.88
2023-02-07T23:04:11.782Z,85.85
2023-02-07T23:06:39.825Z,85.84
2023-02-07T23:09:08.225Z,85.84
2023-02-07T23:11:36.642Z,85.83
2023-02-07T23:14:06.840Z,85.82
2023-02-07T23:16:36.260Z,85.81
2023-02-07T23:19:12.650Z,85.78
2023-02-07T23:21:40.657Z,85.74
2023-02-07T23:24:08.902Z,85.75
2023-02-07T23:26:37.572Z,85.76
2023-02-07T23:29:05.772Z,85.77
2023-02-07T23:31:34.851Z,85.79
2023-02-07T23:34:03.242Z,85.81
2023-02-07T23:36:31.245Z,85.83
2023-02-07T23:38:59.215Z,85.85
2023-02-07T23:41:27.636Z,85.86
2023-02-07T23:43:57.032Z,85.90
2023-02-07T23:46:25.041Z,85.94
2023-02-07T23:48:53.760Z,85.97
2023-02-07T23:51:21.903Z,85.99
2023-02-07T23:53:49.856Z,85.99
2023-02-07T23:56:20.955Z,85.99
2023-02-07T23:58:50.196Z,86.00
